Kuching, Malaysia
Current Conditions -  °F | °C
As of 11:30 AM on Monday 22 Dec 2014 (Local Time) from WBGG Reporting Station
Broken Clouds Broken Clouds  
Wind Chill: 88°   Ceiling: 30000
Heat Index: 98°   Visibility: 6mi
Dew Point: 75°   Wind: 6mph
Humidity: 66%   Direction: 140°SE
Pressure: 29.77"   Gusts: NA
Location:  1.55°N, 110.34°E
Report Text: WBGG 220330Z 14005KT 070V220 9999 SCT020 BKN300 31/24 Q1008 NOSIG
Loading
Personal Weather Stations






























Interactive Weather Map New forecast layout! Learn more

10-Day Weather Forecast

Advertisements
Track Severe Weather on mobile